sensor_id;sensor_type;location;lat;lon;timestamp;pressure;altitude;pressure_sealevel;temperature;humidity
5350;BME280;2697;42.144;24.794;2023-07-20T00:00:26;159422.16;;;26.44;79.81
5350;BME280;2697;42.144;24.794;2023-07-20T00:02:52;159363.50;;;26.21;81.18
5350;BME280;2697;42.144;24.794;2023-07-20T00:05:17;159283.59;;;25.91;82.39
5350;BME280;2697;42.144;24.794;2023-07-20T00:07:50;159298.22;;;25.96;82.69
5350;BME280;2697;42.144;24.794;2023-07-20T00:10:17;159234.34;;;25.72;84.62
5350;BME280;2697;42.144;24.794;2023-07-20T00:12:42;159227.66;;;25.69;84.70
5350;BME280;2697;42.144;24.794;2023-07-20T00:15:12;159195.69;;;25.57;85.62
5350;BME280;2697;42.144;24.794;2023-07-20T00:17:38;159166.41;;;25.46;87.19
5350;BME280;2697;42.144;24.794;2023-07-20T00:20:06;159205.03;;;25.61;85.54
5350;BME280;2697;42.144;24.794;2023-07-20T00:22:31;159157.09;;;25.42;87.13
5350;BME280;2697;42.144;24.794;2023-07-20T00:24:56;159145.09;;;25.38;87.50
5350;BME280;2697;42.144;24.794;2023-07-20T00:27:22;159153.13;;;25.41;86.14
5350;BME280;2697;42.144;24.794;2023-07-20T00:29:47;159146.44;;;25.38;86.20
5350;BME280;2697;42.144;24.794;2023-07-20T00:32:13;159177.03;;;25.50;85.33
5350;BME280;2697;42.144;24.794;2023-07-20T00:34:38;159178.41;;;25.50;84.51
5350;BME280;2697;42.144;24.794;2023-07-20T00:37:03;159187.72;;;25.54;83.82
5350;BME280;2697;42.144;24.794;2023-07-20T00:39:29;159238.34;;;25.73;82.28
5350;BME280;2697;42.144;24.794;2023-07-20T00:41:54;159257.00;;;25.80;80.71
5350;BME280;2697;42.144;24.794;2023-07-20T00:44:20;159272.94;;;25.86;79.71
5350;BME280;2697;42.144;24.794;2023-07-20T00:46:46;159299.59;;;25.97;79.04
5350;BME280;2697;42.144;24.794;2023-07-20T00:49:12;159328.88;;;26.08;78.18
5350;BME280;2697;42.144;24.794;2023-07-20T00:51:38;159326.22;;;26.07;78.01
5350;BME280;2697;42.144;24.794;2023-07-20T00:54:04;159328.88;;;26.08;77.63
5350;BME280;2697;42.144;24.794;2023-07-20T00:56:29;159339.50;;;26.12;77.14
5350;BME280;2697;42.144;24.794;2023-07-20T00:58:55;159358.16;;;26.19;76.60
5350;BME280;2697;42.144;24.794;2023-07-20T01:01:22;159395.44;;;26.33;74.40
5350;BME280;2697;42.144;24.794;2023-07-20T01:03:47;159416.78;;;26.41;75.49
5350;BME280;2697;42.144;24.794;2023-07-20T01:14:25;159432.78;;;26.48;74.42
5350;BME280;2697;42.144;24.794;2023-07-20T01:16:51;159424.81;;;26.45;73.44
5350;BME280;2697;42.144;24.794;2023-07-20T01:19:17;159432.78;;;26.48;73.21
5350;BME280;2697;42.144;24.794;2023-07-20T01:21:57;159422.16;;;26.44;73.92
5350;BME280;2697;42.144;24.794;2023-07-20T01:27:45;159443.44;;;26.52;73.85
5350;BME280;2697;42.144;24.794;2023-07-20T01:33:20;159414.13;;;26.40;73.99
5350;BME280;2697;42.144;24.794;2023-07-20T01:35:50;159404.78;;;26.37;74.32
5350;BME280;2697;42.144;24.794;2023-07-20T01:38:18;159400.78;;;26.35;74.34
5350;BME280;2697;42.144;24.794;2023-07-20T01:40:44;159416.78;;;26.41;74.22
5350;BME280;2697;42.144;24.794;2023-07-20T01:43:11;159430.13;;;26.47;73.71
5350;BME280;2697;42.144;24.794;2023-07-20T01:45:37;159435.44;;;26.49;73.03
5350;BME280;2697;42.144;24.794;2023-07-20T01:48:02;159427.47;;;26.46;72.93
5350;BME280;2697;42.144;24.794;2023-07-20T01:50:28;159454.13;;;26.56;72.58
5350;BME280;2697;42.144;24.794;2023-07-20T01:52:54;159472.78;;;26.63;71.91
5350;BME280;2697;42.144;24.794;2023-07-20T01:55:19;159500.75;;;26.74;71.31
5350;BME280;2697;42.144;24.794;2023-07-20T01:57:44;159507.38;;;26.76;70.77
5350;BME280;2697;42.144;24.794;2023-07-20T02:00:10;159499.41;;;26.73;71.72
5350;BME280;2697;42.144;24.794;2023-07-20T02:02:37;159460.75;;;26.58;72.11
5350;BME280;2697;42.144;24.794;2023-07-20T02:05:02;159451.47;;;26.55;72.57
5350;BME280;2697;42.144;24.794;2023-07-20T02:07:28;159460.75;;;26.58;72.26
5350;BME280;2697;42.144;24.794;2023-07-20T02:09:53;159463.41;;;26.59;72.93
5350;BME280;2697;42.144;24.794;2023-07-20T02:12:19;159483.41;;;26.67;72.24
5350;BME280;2697;42.144;24.794;2023-07-20T02:14:44;159480.75;;;26.66;71.83
5350;BME280;2697;42.144;24.794;2023-07-20T02:17:10;159502.06;;;26.74;71.59
5350;BME280;2697;42.144;24.794;2023-07-20T02:19:37;159503.41;;;26.75;71.13
5350;BME280;2697;42.144;24.794;2023-07-20T02:22:02;159507.38;;;26.76;71.07
5350;BME280;2697;42.144;24.794;2023-07-20T02:24:28;159535.34;;;26.87;70.60
5350;BME280;2697;42.144;24.794;2023-07-20T02:26:53;159526.03;;;26.83;73.28
5350;BME280;2697;42.144;24.794;2023-07-20T02:29:18;159418.13;;;26.42;74.70
5350;BME280;2697;42.144;24.794;2023-07-20T02:31:44;159390.13;;;26.31;75.10
5350;BME280;2697;42.144;24.794;2023-07-20T02:34:09;159342.19;;;26.13;75.52
5350;BME280;2697;42.144;24.794;2023-07-20T02:36:35;159302.25;;;25.98;76.35
5350;BME280;2697;42.144;24.794;2023-07-20T02:39:00;159278.28;;;25.89;77.02
5350;BME280;2697;42.144;24.794;2023-07-20T02:41:28;159272.94;;;25.86;77.10
5350;BME280;2697;42.144;24.794;2023-07-20T02:43:54;159270.28;;;25.85;77.19
5350;BME280;2697;42.144;24.794;2023-07-20T02:46:19;159248.97;;;25.77;78.05
5350;BME280;2697;42.144;24.794;2023-07-20T02:48:45;159238.34;;;25.73;78.09
5350;BME280;2697;42.144;24.794;2023-07-20T02:51:10;159198.34;;;25.58;79.46
5350;BME280;2697;42.144;24.794;2023-07-20T02:53:37;159174.38;;;25.49;80.42
5350;BME280;2697;42.144;24.794;2023-07-20T02:56:03;159169.06;;;25.47;80.59
5350;BME280;2697;42.144;24.794;2023-07-20T02:58:28;159171.72;;;25.48;80.98
5350;BME280;2697;42.144;24.794;2023-07-20T03:00:54;159153.13;;;25.41;82.38
5350;BME280;2697;42.144;24.794;2023-07-20T03:03:19;159123.81;;;25.29;83.54
5350;BME280;2697;42.144;24.794;2023-07-20T03:05:45;159090.56;;;25.17;84.13
5350;BME280;2697;42.144;24.794;2023-07-20T03:08:10;159115.84;;;25.26;82.46
5350;BME280;2697;42.144;24.794;2023-07-20T03:10:40;159089.22;;;25.16;82.57
5350;BME280;2697;42.144;24.794;2023-07-20T03:13:08;159081.25;;;25.13;82.94
5350;BME280;2697;42.144;24.794;2023-07-20T03:15:34;159073.22;;;25.10;82.79
5350;BME280;2697;42.144;24.794;2023-07-20T03:17:59;159087.91;;;25.16;83.74
5350;BME280;2697;42.144;24.794;2023-07-20T03:20:24;159067.94;;;25.08;82.85
5350;BME280;2697;42.144;24.794;2023-07-20T03:22:51;159099.84;;;25.20;83.21
5350;BME280;2697;42.144;24.794;2023-07-20T03:25:16;159101.19;;;25.21;83.94
5350;BME280;2697;42.144;24.794;2023-07-20T03:27:42;159145.09;;;25.38;83.41
5350;BME280;2697;42.144;24.794;2023-07-20T03:30:08;159167.72;;;25.46;83.50
5350;BME280;2697;42.144;24.794;2023-07-20T03:32:35;159222.28;;;25.67;82.16
5350;BME280;2697;42.144;24.794;2023-07-20T03:35:01;159260.97;;;25.82;80.66
5350;BME280;2697;42.144;24.794;2023-07-20T03:37:26;159311.56;;;26.01;80.42
5350;BME280;2697;42.144;24.794;2023-07-20T03:39:51;159390.13;;;26.31;80.09
5350;BME280;2697;42.144;24.794;2023-07-20T03:42:17;159479.41;;;26.65;78.70
5350;BME280;2697;42.144;24.794;2023-07-20T03:44:42;159532.69;;;26.86;76.80
5350;BME280;2697;42.144;24.794;2023-07-20T03:47:07;159539.34;;;26.88;75.45
5350;BME280;2697;42.144;24.794;2023-07-20T03:49:34;159486.06;;;26.68;76.38
5350;BME280;2697;42.144;24.794;2023-07-20T03:52:00;159606.03;;;27.14;74.76
5350;BME280;2697;42.144;24.794;2023-07-20T03:54:26;159603.38;;;27.13;74.25
5350;BME280;2697;42.144;24.794;2023-07-20T03:56:51;159630.00;;;27.23;73.38
5350;BME280;2697;42.144;24.794;2023-07-20T03:59:17;159588.69;;;27.07;74.35
5350;BME280;2697;42.144;24.794;2023-07-20T04:01:42;159632.66;;;27.24;73.44
5350;BME280;2697;42.144;24.794;2023-07-20T04:04:07;159790.00;;;27.84;71.84
5350;BME280;2697;42.144;24.794;2023-07-20T04:06:34;159896.66;;;28.25;69.72
5350;BME280;2697;42.144;24.794;2023-07-20T04:08:59;160054.03;;;28.85;66.54
5350;BME280;2697;42.144;24.794;2023-07-20T04:11:24;160030.03;;;28.76;67.02
5350;BME280;2697;42.144;24.794;2023-07-20T04:13:50;160067.44;;;28.90;66.00
5350;BME280;2697;42.144;24.794;2023-07-20T04:16:15;159904.63;;;28.28;66.85
5350;BME280;2697;42.144;24.794;2023-07-20T04:18:41;159904.63;;;28.28;67.56
5350;BME280;2697;42.144;24.794;2023-07-20T04:21:07;159811.34;;;27.92;68.65
5350;BME280;2697;42.144;24.794;2023-07-20T04:23:33;159916.69;;;28.32;67.35
5350;BME280;2697;42.144;24.794;2023-07-20T04:26:00;159979.34;;;28.56;67.23
5350;BME280;2697;42.144;24.794;2023-07-20T04:28:26;159995.38;;;28.62;67.59
5350;BME280;2697;42.144;24.794;2023-07-20T04:30:52;159940.72;;;28.42;68.53
5350;BME280;2697;42.144;24.794;2023-07-20T04:33:18;159896.66;;;28.25;70.83
5350;BME280;2697;42.144;24.794;2023-07-20T04:35:53;159899.31;;;28.26;70.40
5350;BME280;2697;42.144;24.794;2023-07-20T04:38:19;159835.34;;;28.01;71.43
5350;BME280;2697;42.144;24.794;2023-07-20T04:40:49;160000.69;;;28.64;69.21
5350;BME280;2697;42.144;24.794;2023-07-20T04:43:15;160130.16;;;29.14;66.75
5350;BME280;2697;42.144;24.794;2023-07-20T04:45:40;160019.38;;;28.72;68.81
5350;BME280;2697;42.144;24.794;2023-07-20T04:48:11;160216.88;;;29.47;66.53
5350;BME280;2697;42.144;24.794;2023-07-20T04:50:37;160453.22;;;30.37;63.84
5350;BME280;2697;42.144;24.794;2023-07-20T04:53:02;160403.81;;;30.18;63.06
5350;BME280;2697;42.144;24.794;2023-07-20T04:55:28;160395.78;;;30.15;63.14
5350;BME280;2697;42.144;24.794;2023-07-20T04:57:53;160390.47;;;30.13;61.80
5350;BME280;2697;42.144;24.794;2023-07-20T05:00:19;160588.09;;;30.88;61.30
5350;BME280;2697;42.144;24.794;2023-07-20T05:02:45;160854.06;;;31.90;57.92
5350;BME280;2697;42.144;24.794;2023-07-20T05:05:12;161093.34;;;32.81;54.93
5350;BME280;2697;42.144;24.794;2023-07-20T05:07:38;161030.50;;;32.57;54.89
5350;BME280;2697;42.144;24.794;2023-07-20T05:10:04;160882.09;;;32.00;56.19
5350;BME280;2697;42.144;24.794;2023-07-20T05:12:29;161006.44;;;32.48;54.26
5350;BME280;2697;42.144;24.794;2023-07-20T05:14:55;161031.88;;;32.57;53.80
5350;BME280;2697;42.144;24.794;2023-07-20T05:17:20;161018.50;;;32.52;54.07
5350;BME280;2697;42.144;24.794;2023-07-20T05:19:45;161138.88;;;32.98;52.86
5350;BME280;2697;42.144;24.794;2023-07-20T05:22:13;161117.47;;;32.90;50.64
5350;BME280;2697;42.144;24.794;2023-07-20T05:24:39;161164.28;;;33.08;50.32
5350;BME280;2697;42.144;24.794;2023-07-20T05:27:04;161165.63;;;33.08;51.54
5350;BME280;2697;42.144;24.794;2023-07-20T05:29:30;161334.19;;;33.72;48.37
5350;BME280;2697;42.144;24.794;2023-07-20T05:31:55;161516.22;;;34.42;46.40
5350;BME280;2697;42.144;24.794;2023-07-20T05:34:20;161686.25;;;35.06;45.00
5350;BME280;2697;42.144;24.794;2023-07-20T05:36:46;161559.03;;;34.58;45.39
5350;BME280;2697;42.144;24.794;2023-07-20T05:39:11;161585.81;;;34.68;45.23
5350;BME280;2697;42.144;24.794;2023-07-20T05:41:36;162037.25;;;36.40;41.49
5350;BME280;2697;42.144;24.794;2023-07-20T05:44:02;162232.94;;;37.14;40.65
5350;BME280;2697;42.144;24.794;2023-07-20T05:46:27;162172.59;;;36.91;39.30
5350;BME280;2697;42.144;24.794;2023-07-20T05:48:53;161805.44;;;35.52;41.68
5350;BME280;2697;42.144;24.794;2023-07-20T05:51:18;162081.44;;;36.57;39.78
5350;BME280;2697;42.144;24.794;2023-07-20T05:53:44;162387.09;;;37.73;37.61
5350;BME280;2697;42.144;24.794;2023-07-20T05:56:09;161820.19;;;35.57;40.35
5350;BME280;2697;42.144;24.794;2023-07-20T05:58:36;161909.94;;;35.91;40.35
5350;BME280;2697;42.144;24.794;2023-07-20T06:01:01;162009.03;;;36.29;39.29
5350;BME280;2697;42.144;24.794;2023-07-20T06:03:27;161895.19;;;35.86;41.07
5350;BME280;2697;42.144;24.794;2023-07-20T06:05:59;162068.06;;;36.51;38.08
5350;BME280;2697;42.144;24.794;2023-07-20T06:08:24;162727.84;;;39.02;35.11
5350;BME280;2697;42.144;24.794;2023-07-20T06:10:50;162672.81;;;38.81;34.24
5350;BME280;2697;42.144;24.794;2023-07-20T06:13:17;162098.84;;;36.63;37.58
5350;BME280;2697;42.144;24.794;2023-07-20T06:15:42;162037.25;;;36.40;38.12
5350;BME280;2697;42.144;24.794;2023-07-20T06:18:08;161950.13;;;36.07;38.95
5350;BME280;2697;42.144;24.794;2023-07-20T06:20:34;162043.94;;;36.42;38.74
5350;BME280;2697;42.144;24.794;2023-07-20T06:22:59;162381.75;;;37.71;36.97
5350;BME280;2697;42.144;24.794;2023-07-20T06:25:24;162234.25;;;37.15;37.12
5350;BME280;2697;42.144;24.794;2023-07-20T06:27:50;162073.41;;;36.53;37.46
5350;BME280;2697;42.144;24.794;2023-07-20T06:30:19;162593.66;;;38.51;35.18
5350;BME280;2697;42.144;24.794;2023-07-20T06:32:45;162659.44;;;38.76;33.62
5350;BME280;2697;42.144;24.794;2023-07-20T06:35:10;162780.22;;;39.22;33.16
5350;BME280;2697;42.144;24.794;2023-07-20T06:37:36;162600.41;;;38.54;33.26
5350;BME280;2697;42.144;24.794;2023-07-20T06:40:02;161829.53;;;35.61;38.05
5350;BME280;2697;42.144;24.794;2023-07-20T06:42:29;161650.13;;;34.93;39.71
5350;BME280;2697;42.144;24.794;2023-07-20T06:44:55;161801.44;;;35.50;39.29
5350;BME280;2697;42.144;24.794;2023-07-20T06:47:20;162155.16;;;36.85;36.96
5350;BME280;2697;42.144;24.794;2023-07-20T06:49:45;162353.56;;;37.60;36.19
5350;BME280;2697;42.144;24.794;2023-07-20T06:52:11;162383.09;;;37.71;35.90
5350;BME280;2697;42.144;24.794;2023-07-20T06:54:36;162876.84;;;39.58;33.32
5350;BME280;2697;42.144;24.794;2023-07-20T06:57:01;163084.88;;;40.37;31.52
5350;BME280;2697;42.144;24.794;2023-07-20T06:59:27;163067.47;;;40.31;31.30
5350;BME280;2697;42.144;24.794;2023-07-20T07:01:52;162950.66;;;39.86;31.83
5350;BME280;2697;42.144;24.794;2023-07-20T07:04:18;163173.56;;;40.71;30.39
5350;BME280;2697;42.144;24.794;2023-07-20T07:06:43;163239.41;;;40.96;30.67
5350;BME280;2697;42.144;24.794;2023-07-20T07:09:09;163141.34;;;40.59;30.53
5350;BME280;2697;42.144;24.794;2023-07-20T07:11:34;163242.09;;;40.97;30.46
5350;BME280;2697;42.144;24.794;2023-07-20T07:14:00;163436.91;;;41.71;28.80
5350;BME280;2697;42.144;24.794;2023-07-20T07:16:25;163337.47;;;41.33;29.11
5350;BME280;2697;42.144;24.794;2023-07-20T07:18:51;163372.38;;;41.46;28.69
5350;BME280;2697;42.144;24.794;2023-07-20T07:21:16;162913.06;;;39.72;31.09
5350;BME280;2697;42.144;24.794;2023-07-20T07:23:42;162084.09;;;36.58;34.74
5350;BME280;2697;42.144;24.794;2023-07-20T07:26:09;162696.97;;;38.90;32.72
5350;BME280;2697;42.144;24.794;2023-07-20T07:28:34;163111.78;;;40.48;29.88
5350;BME280;2697;42.144;24.794;2023-07-20T07:31:00;162694.28;;;38.89;31.85
5350;BME280;2697;42.144;24.794;2023-07-20T07:33:25;162848.63;;;39.48;31.28
5350;BME280;2697;42.144;24.794;2023-07-20T07:35:51;162674.19;;;38.82;32.08
5350;BME280;2697;42.144;24.794;2023-07-20T07:38:20;162746.63;;;39.09;31.69
5350;BME280;2697;42.144;24.794;2023-07-20T07:40:45;162980.16;;;39.98;30.66
5350;BME280;2697;42.144;24.794;2023-07-20T07:43:11;163278.31;;;41.11;29.02
5350;BME280;2697;42.144;24.794;2023-07-20T07:45:38;163391.19;;;41.53;28.38
5350;BME280;2697;42.144;24.794;2023-07-20T07:48:06;163600.78;;;42.33;27.81
5350;BME280;2697;42.144;24.794;2023-07-20T07:50:33;162961.38;;;39.90;30.06
5350;BME280;2697;42.144;24.794;2023-07-20T07:52:58;162062.72;;;36.49;35.21
5350;BME280;2697;42.144;24.794;2023-07-20T07:55:24;162226.19;;;37.12;35.26
5350;BME280;2697;42.144;24.794;2023-07-20T07:57:52;161947.47;;;36.06;37.24
5350;BME280;2697;42.144;24.794;2023-07-20T08:00:17;161788.03;;;35.45;38.58
5350;BME280;2697;42.144;24.794;2023-07-20T08:02:45;162239.63;;;37.17;36.43
5350;BME280;2697;42.144;24.794;2023-07-20T08:05:11;162282.56;;;37.33;35.70
5350;BME280;2697;42.144;24.794;2023-07-20T08:07:37;162030.53;;;36.37;37.33
5350;BME280;2697;42.144;24.794;2023-07-20T08:10:04;162303.97;;;37.41;35.97
5350;BME280;2697;42.144;24.794;2023-07-20T08:12:30;162275.81;;;37.30;35.86
5350;BME280;2697;42.144;24.794;2023-07-20T08:14:55;162408.59;;;37.81;35.22
5350;BME280;2697;42.144;24.794;2023-07-20T08:17:21;162620.47;;;38.61;34.01
5350;BME280;2697;42.144;24.794;2023-07-20T08:19:46;162430.06;;;37.89;33.52
5350;BME280;2697;42.144;24.794;2023-07-20T08:22:12;162105.53;;;36.66;34.98
5350;BME280;2697;42.144;24.794;2023-07-20T08:24:41;161952.81;;;36.08;36.74
5350;BME280;2697;42.144;24.794;2023-07-20T08:27:07;161963.53;;;36.12;36.36
5350;BME280;2697;42.144;24.794;2023-07-20T08:29:33;161952.81;;;36.08;36.35
5350;BME280;2697;42.144;24.794;2023-07-20T08:31:59;161652.78;;;34.94;37.88
5350;BME280;2697;42.144;24.794;2023-07-20T08:34:24;161652.78;;;34.94;38.64
5350;BME280;2697;42.144;24.794;2023-07-20T08:36:49;161713.00;;;35.17;37.82
5350;BME280;2697;42.144;24.794;2023-07-20T08:39:15;161776.00;;;35.40;37.36
5350;BME280;2697;42.144;24.794;2023-07-20T08:41:42;161639.38;;;34.89;39.17
5350;BME280;2697;42.144;24.794;2023-07-20T08:44:08;161652.78;;;34.94;38.99
5350;BME280;2697;42.144;24.794;2023-07-20T08:46:35;161770.66;;;35.38;37.88
5350;BME280;2697;42.144;24.794;2023-07-20T08:49:01;161794.75;;;35.48;38.18
5350;BME280;2697;42.144;24.794;2023-07-20T08:51:29;161763.88;;;35.36;39.22
5350;BME280;2697;42.144;24.794;2023-07-20T08:53:55;161753.19;;;35.32;38.85
5350;BME280;2697;42.144;24.794;2023-07-20T08:56:20;161784.03;;;35.44;39.04
5350;BME280;2697;42.144;24.794;2023-07-20T08:58:49;161735.75;;;35.25;39.12
5350;BME280;2697;42.144;24.794;2023-07-20T09:01:15;161652.78;;;34.94;38.67
5350;BME280;2697;42.144;24.794;2023-07-20T09:03:44;161731.75;;;35.24;38.63
5350;BME280;2697;42.144;24.794;2023-07-20T09:06:10;161735.75;;;35.25;39.02
5350;BME280;2697;42.144;24.794;2023-07-20T09:08:39;161727.75;;;35.22;38.85
5350;BME280;2697;42.144;24.794;2023-07-20T09:11:05;161849.66;;;35.68;38.33
5350;BME280;2697;42.144;24.794;2023-07-20T09:13:32;161824.22;;;35.59;38.12
5350;BME280;2697;42.144;24.794;2023-07-20T09:15:58;161841.63;;;35.65;38.15
5350;BME280;2697;42.144;24.794;2023-07-20T09:18:28;161918.00;;;35.94;37.80
5350;BME280;2697;42.144;24.794;2023-07-20T09:21:04;161773.31;;;35.39;39.65
5350;BME280;2697;42.144;24.794;2023-07-20T09:23:33;161950.13;;;36.07;39.27
5350;BME280;2697;42.144;24.794;2023-07-20T09:25:59;161904.59;;;35.89;39.76
5350;BME280;2697;42.144;24.794;2023-07-20T09:28:25;161966.22;;;36.13;40.07
5350;BME280;2697;42.144;24.794;2023-07-20T09:30:51;161942.09;;;36.04;40.61
5350;BME280;2697;42.144;24.794;2023-07-20T09:33:24;161920.69;;;35.95;40.97
5350;BME280;2697;42.144;24.794;2023-07-20T09:35:49;161869.72;;;35.76;40.09
5350;BME280;2697;42.144;24.794;2023-07-20T09:38:15;161915.31;;;35.93;40.27
5350;BME280;2697;42.144;24.794;2023-07-20T09:40:41;161915.31;;;35.93;40.11
5350;BME280;2697;42.144;24.794;2023-07-20T09:43:08;161976.91;;;36.17;39.37
5350;BME280;2697;42.144;24.794;2023-07-20T09:45:35;161922.00;;;35.96;39.81
5350;BME280;2697;42.144;24.794;2023-07-20T09:48:08;161727.75;;;35.22;40.15
5350;BME280;2697;42.144;24.794;2023-07-20T09:50:39;161636.66;;;34.88;41.35
5350;BME280;2697;42.144;24.794;2023-07-20T09:53:07;161687.56;;;35.07;41.20
5350;BME280;2697;42.144;24.794;2023-07-20T09:55:33;161660.81;;;34.97;41.04
5350;BME280;2697;42.144;24.794;2023-07-20T09:58:00;161628.66;;;34.84;41.99
5350;BME280;2697;42.144;24.794;2023-07-20T10:00:25;161786.69;;;35.45;41.56
5350;BME280;2697;42.144;24.794;2023-07-20T10:02:51;161742.50;;;35.28;41.02
5350;BME280;2697;42.144;24.794;2023-07-20T10:05:18;161648.78;;;34.92;41.57
5350;BME280;2697;42.144;24.794;2023-07-20T10:07:48;161805.44;;;35.52;41.08
5350;BME280;2697;42.144;24.794;2023-07-20T10:10:17;161889.84;;;35.84;39.90
5350;BME280;2697;42.144;24.794;2023-07-20T10:12:46;161832.22;;;35.62;40.12
5350;BME280;2697;42.144;24.794;2023-07-20T10:15:26;161932.69;;;36.00;39.24
5350;BME280;2697;42.144;24.794;2023-07-20T10:17:59;161986.25;;;36.20;39.44
5350;BME280;2697;42.144;24.794;2023-07-20T10:20:27;162014.44;;;36.31;38.46
5350;BME280;2697;42.144;24.794;2023-07-20T10:22:55;162058.66;;;36.48;37.82
5350;BME280;2697;42.144;24.794;2023-07-20T10:25:24;162045.28;;;36.43;38.34
5350;BME280;2697;42.144;24.794;2023-07-20T10:27:50;161990.31;;;36.22;38.57
5350;BME280;2697;42.144;24.794;2023-07-20T10:30:17;162120.31;;;36.71;37.05
5350;BME280;2697;42.144;24.794;2023-07-20T10:32:43;162136.41;;;36.77;37.62
5350;BME280;2697;42.144;24.794;2023-07-20T10:35:16;162149.78;;;36.82;36.94
5350;BME280;2697;42.144;24.794;2023-07-20T10:37:51;162128.31;;;36.74;37.14
5350;BME280;2697;42.144;24.794;2023-07-20T10:40:33;162230.19;;;37.13;36.98
5350;BME280;2697;42.144;24.794;2023-07-20T10:43:09;162287.91;;;37.35;36.53
5350;BME280;2697;42.144;24.794;2023-07-20T10:45:57;162342.84;;;37.56;35.50
5350;BME280;2697;42.144;24.794;2023-07-20T10:48:23;162226.19;;;37.12;36.59
5350;BME280;2697;42.144;24.794;2023-07-20T10:51:14;162306.69;;;37.42;35.92
5350;BME280;2697;42.144;24.794;2023-07-20T10:53:44;162329.44;;;37.51;35.42
5350;BME280;2697;42.144;24.794;2023-07-20T10:56:15;162325.41;;;37.49;35.07
5350;BME280;2697;42.144;24.794;2023-07-20T10:58:41;162328.09;;;37.50;35.58
5350;BME280;2697;42.144;24.794;2023-07-20T11:01:07;162365.66;;;37.64;34.65
5350;BME280;2697;42.144;24.794;2023-07-20T11:03:39;162372.34;;;37.67;34.78
5350;BME280;2697;42.144;24.794;2023-07-20T11:09:04;162392.44;;;37.75;34.53
5350;BME280;2697;42.144;24.794;2023-07-20T11:11:31;162395.13;;;37.76;34.93
5350;BME280;2697;42.144;24.794;2023-07-20T11:14:04;162393.78;;;37.75;34.35
5350;BME280;2697;42.144;24.794;2023-07-20T11:18:58;162220.84;;;37.09;34.16
5350;BME280;2697;42.144;24.794;2023-07-20T11:21:24;162202.06;;;37.02;35.10
5350;BME280;2697;42.144;24.794;2023-07-20T11:23:55;162375.00;;;37.68;33.02
5350;BME280;2697;42.144;24.794;2023-07-20T11:26:21;162344.19;;;37.56;33.79
5350;BME280;2697;42.144;24.794;2023-07-20T11:28:50;162389.78;;;37.74;33.77
5350;BME280;2697;42.144;24.794;2023-07-20T11:31:17;162471.56;;;38.05;32.92
5350;BME280;2697;42.144;24.794;2023-07-20T11:33:42;162459.53;;;38.00;33.36
5350;BME280;2697;42.144;24.794;2023-07-20T11:36:08;162510.47;;;38.19;32.01
5350;BME280;2697;42.144;24.794;2023-07-20T11:38:34;162545.38;;;38.33;31.42
5350;BME280;2697;42.144;24.794;2023-07-20T11:41:00;162561.47;;;38.39;31.24
5350;BME280;2697;42.144;24.794;2023-07-20T11:43:25;162530.66;;;38.27;30.53
5350;BME280;2697;42.144;24.794;2023-07-20T11:45:51;162564.16;;;38.40;31.38
5350;BME280;2697;42.144;24.794;2023-07-20T11:48:18;162600.41;;;38.54;30.26
5350;BME280;2697;42.144;24.794;2023-07-20T11:50:44;162687.59;;;38.87;30.30
5350;BME280;2697;42.144;24.794;2023-07-20T11:53:09;162631.22;;;38.65;30.31
5350;BME280;2697;42.144;24.794;2023-07-20T11:55:36;162537.34;;;38.30;31.19
5350;BME280;2697;42.144;24.794;2023-07-20T11:58:05;162639.31;;;38.68;30.44
5350;BME280;2697;42.144;24.794;2023-07-20T12:00:31;162688.94;;;38.87;30.60
5350;BME280;2697;42.144;24.794;2023-07-20T12:02:57;162703.69;;;38.93;30.11
5350;BME280;2697;42.144;24.794;2023-07-20T12:05:23;162769.44;;;39.18;29.49
5350;BME280;2697;42.144;24.794;2023-07-20T12:07:49;162676.88;;;38.83;30.55
5350;BME280;2697;42.144;24.794;2023-07-20T12:10:24;162695.63;;;38.90;30.32
5350;BME280;2697;42.144;24.794;2023-07-20T12:12:50;162752.00;;;39.11;29.76
5350;BME280;2697;42.144;24.794;2023-07-20T12:15:25;162803.00;;;39.30;30.26
5350;BME280;2697;42.144;24.794;2023-07-20T12:17:59;162837.88;;;39.44;29.84
5350;BME280;2697;42.144;24.794;2023-07-20T12:22:59;162825.81;;;39.39;30.25
5350;BME280;2697;42.144;24.794;2023-07-20T12:28:06;162745.25;;;39.09;30.60
5350;BME280;2697;42.144;24.794;2023-07-20T12:30:32;162764.09;;;39.16;30.37
5350;BME280;2697;42.144;24.794;2023-07-20T12:32:58;162862.03;;;39.53;29.89
5350;BME280;2697;42.144;24.794;2023-07-20T12:35:23;162953.31;;;39.87;29.78
5350;BME280;2697;42.144;24.794;2023-07-20T12:37:49;162897.00;;;39.66;29.68
5350;BME280;2697;42.144;24.794;2023-07-20T12:40:15;162841.88;;;39.45;30.11
5350;BME280;2697;42.144;24.794;2023-07-20T12:42:41;162918.47;;;39.74;29.50
5350;BME280;2697;42.144;24.794;2023-07-20T12:45:07;162840.56;;;39.45;30.04
5350;BME280;2697;42.144;24.794;2023-07-20T12:47:32;162823.16;;;39.38;29.71
5350;BME280;2697;42.144;24.794;2023-07-20T12:49:58;162658.09;;;38.75;31.01
5350;BME280;2697;42.144;24.794;2023-07-20T12:52:23;162809.72;;;39.33;29.81
5350;BME280;2697;42.144;24.794;2023-07-20T12:54:48;162841.88;;;39.45;30.54
5350;BME280;2697;42.144;24.794;2023-07-20T12:57:14;162880.88;;;39.60;29.88
5350;BME280;2697;42.144;24.794;2023-07-20T12:59:39;162703.69;;;38.93;30.27
5350;BME280;2697;42.144;24.794;2023-07-20T13:02:05;162754.72;;;39.12;30.42
5350;BME280;2697;42.144;24.794;2023-07-20T13:04:31;162886.22;;;39.62;29.53
5350;BME280;2697;42.144;24.794;2023-07-20T13:06:56;162907.69;;;39.70;29.31
5350;BME280;2697;42.144;24.794;2023-07-20T13:09:24;162821.81;;;39.38;29.65
5350;BME280;2697;42.144;24.794;2023-07-20T13:11:49;162698.34;;;38.91;30.72
5350;BME280;2697;42.144;24.794;2023-07-20T13:14:14;162648.72;;;38.72;30.21
5350;BME280;2697;42.144;24.794;2023-07-20T13:16:40;162631.22;;;38.65;30.54
5350;BME280;2697;42.144;24.794;2023-07-20T13:19:05;162660.78;;;38.76;30.58
5350;BME280;2697;42.144;24.794;2023-07-20T13:21:30;162620.47;;;38.61;30.99